createdAt,value
2018-06-20T00:01:15.994Z,14.47
2018-06-20T00:03:45.177Z,15.63
2018-06-20T00:06:14.492Z,17.90
2018-06-20T00:08:46.632Z,15.43
2018-06-20T00:11:16.144Z,16.20
2018-06-20T00:13:45.763Z,18.10
2018-06-20T00:16:14.979Z,17.73
2018-06-20T00:18:44.453Z,16.47
2018-06-20T00:21:14.353Z,17.30
2018-06-20T00:23:43.678Z,15.97
2018-06-20T00:26:12.707Z,17.93
2018-06-20T00:28:42.112Z,17.27
2018-06-20T00:31:11.063Z,16.90
2018-06-20T00:33:40.335Z,18.20
2018-06-20T00:36:09.887Z,18.43
2018-06-20T00:38:39.033Z,19.33
2018-06-20T00:41:08.358Z,18.50
2018-06-20T00:43:37.977Z,18.30
2018-06-20T00:46:06.940Z,18.13
2018-06-20T00:48:36.582Z,18.23
2018-06-20T00:51:05.761Z,17.70
2018-06-20T00:53:35.450Z,18.20
2018-06-20T00:56:15.276Z,17.73
2018-06-20T00:58:44.746Z,19.20
2018-06-20T01:01:14.024Z,17.70
2018-06-20T01:03:42.903Z,18.50
2018-06-20T01:06:11.878Z,18.97
2018-06-20T01:08:41.598Z,17.80
2018-06-20T01:11:11.325Z,18.30
2018-06-20T01:13:40.196Z,19.00
2018-06-20T01:16:09.418Z,19.27
2018-06-20T01:18:38.603Z,18.30
2018-06-20T01:21:07.699Z,18.83
2018-06-20T01:23:36.731Z,18.30
2018-06-20T01:26:06.153Z,19.90
2018-06-20T01:28:35.018Z,18.33
2018-06-20T01:31:04.010Z,19.20
2018-06-20T01:33:32.855Z,16.80
2018-06-20T01:36:01.747Z,17.30
2018-06-20T01:38:30.959Z,19.00
2018-06-20T01:41:00.271Z,15.77
2018-06-20T01:43:29.517Z,19.70
2018-06-20T01:45:58.834Z,18.17
2018-06-20T01:48:27.985Z,16.90
2018-06-20T01:50:58.225Z,17.00
2018-06-20T01:53:27.358Z,17.53
2018-06-20T01:55:56.553Z,17.40
2018-06-20T01:58:25.772Z,17.57
2018-06-20T02:00:54.972Z,16.77
2018-06-20T02:03:23.860Z,17.80
2018-06-20T02:05:53.411Z,17.93
2018-06-20T02:08:22.591Z,19.33
2018-06-20T02:10:51.462Z,18.70
2018-06-20T02:13:20.678Z,17.43
2018-06-20T02:15:50.108Z,19.20
2018-06-20T02:18:19.119Z,18.47
2018-06-20T02:20:48.302Z,18.77
2018-06-20T02:23:17.172Z,17.57
2018-06-20T02:25:47.296Z,18.20
2018-06-20T02:28:16.820Z,15.30
2018-06-20T02:30:46.274Z,16.10
2018-06-20T02:33:15.179Z,16.70
2018-06-20T02:35:44.055Z,17.07
2018-06-20T02:38:13.299Z,17.80
2018-06-20T02:40:42.610Z,17.30
2018-06-20T02:43:11.829Z,18.10
2018-06-20T02:45:40.946Z,16.77
2018-06-20T02:48:10.381Z,17.20
2018-06-20T02:50:40.014Z,15.97
2018-06-20T02:53:09.149Z,18.43
2018-06-20T02:55:38.649Z,17.90
2018-06-20T02:58:07.518Z,15.50
2018-06-20T03:00:36.398Z,17.40
2018-06-20T03:03:05.294Z,16.93
2018-06-20T03:05:34.239Z,17.53
2018-06-20T03:08:03.673Z,17.23
2018-06-20T03:10:32.532Z,17.73
2018-06-20T03:13:01.700Z,18.33
2018-06-20T03:15:31.087Z,16.17
2018-06-20T03:18:00.317Z,17.80
2018-06-20T03:20:29.214Z,19.10
2018-06-20T03:22:58.415Z,18.80
2018-06-20T03:25:28.127Z,18.03
2018-06-20T03:27:57.261Z,17.53
2018-06-20T03:30:26.138Z,19.17
2018-06-20T03:32:55.310Z,18.27
2018-06-20T03:35:24.506Z,18.63
2018-06-20T03:37:53.655Z,20.27
2018-06-20T03:40:23.436Z,20.10
2018-06-20T03:42:52.284Z,19.80
2018-06-20T03:45:21.464Z,19.37
2018-06-20T03:47:50.930Z,20.40
2018-06-20T03:50:20.457Z,18.90
2018-06-20T03:52:49.321Z,21.27
2018-06-20T03:55:18.464Z,19.83
2018-06-20T03:57:47.713Z,19.73
2018-06-20T04:00:17.118Z,19.17
2018-06-20T04:02:45.995Z,19.93
2018-06-20T04:05:15.409Z,20.77
2018-06-20T04:07:44.493Z,21.30
2018-06-20T04:10:13.721Z,20.00
2018-06-20T04:12:42.848Z,18.87
2018-06-20T04:15:12.013Z,20.13
2018-06-20T04:17:41.151Z,21.60
2018-06-20T04:20:10.440Z,21.93
2018-06-20T04:22:39.300Z,22.43
2018-06-20T04:25:08.201Z,22.10
2018-06-20T04:27:37.361Z,21.47
2018-06-20T04:30:06.223Z,23.23
2018-06-20T04:32:35.362Z,23.63
2018-06-20T04:35:04.239Z,21.87
2018-06-20T04:37:33.066Z,22.23
2018-06-20T04:40:01.959Z,20.63
2018-06-20T04:42:30.855Z,22.40
2018-06-20T04:44:59.717Z,21.80
2018-06-20T04:47:28.616Z,22.47
2018-06-20T04:49:57.453Z,25.20
2018-06-20T04:52:27.380Z,23.20
2018-06-20T04:54:56.589Z,25.10
2018-06-20T04:57:25.759Z,24.50
2018-06-20T04:59:54.607Z,26.00
2018-06-20T05:02:23.684Z,28.97
2018-06-20T05:04:53.178Z,27.67
2018-06-20T05:07:22.666Z,25.80
2018-06-20T05:09:51.918Z,25.67
2018-06-20T05:12:21.361Z,28.40
2018-06-20T05:14:50.461Z,27.90
2018-06-20T05:17:19.377Z,27.90
2018-06-20T05:19:48.253Z,30.83
2018-06-20T05:22:17.419Z,27.23
2018-06-20T05:24:46.546Z,28.40
2018-06-20T05:27:15.437Z,27.30
2018-06-20T05:29:44.596Z,27.60
2018-06-20T05:32:13.786Z,25.93
2018-06-20T05:34:43.006Z,27.27
2018-06-20T05:37:12.255Z,25.77
2018-06-20T05:39:41.694Z,24.90
2018-06-20T05:42:10.558Z,28.00
2018-06-20T05:44:39.899Z,25.90
2018-06-20T05:47:09.596Z,28.60
2018-06-20T05:49:38.419Z,26.27
2018-06-20T05:52:07.657Z,28.17
2018-06-20T05:54:37.570Z,25.53
2018-06-20T05:57:06.738Z,25.13
2018-06-20T05:59:35.612Z,24.67
2018-06-20T06:02:04.585Z,25.90
2018-06-20T06:04:33.496Z,25.93
2018-06-20T06:07:02.354Z,26.40
2018-06-20T06:09:31.706Z,26.83
2018-06-20T06:12:00.609Z,25.03
2018-06-20T06:14:29.537Z,27.23
2018-06-20T06:16:58.766Z,25.60
2018-06-20T06:19:27.657Z,25.63
2018-06-20T06:21:56.950Z,23.23
2018-06-20T06:24:26.677Z,23.70
2018-06-20T06:26:56.474Z,24.53
2018-06-20T06:29:25.513Z,22.57
2018-06-20T06:31:54.529Z,22.83
2018-06-20T06:34:23.443Z,22.60
2018-06-20T06:36:52.360Z,22.10
2018-06-20T06:39:21.305Z,20.90
2018-06-20T06:41:50.579Z,21.10
2018-06-20T06:44:19.696Z,20.47
2018-06-20T06:46:49.251Z,21.43
2018-06-20T06:49:18.563Z,20.10
2018-06-20T06:51:47.977Z,20.40
2018-06-20T06:54:17.324Z,19.80
2018-06-20T06:56:46.482Z,20.13
2018-06-20T06:59:15.353Z,21.23
2018-06-20T07:01:44.178Z,19.60
2018-06-20T07:04:13.589Z,18.73
2018-06-20T07:06:43.131Z,19.80
2018-06-20T07:09:12.532Z,16.87
2018-06-20T07:11:41.727Z,18.80
2018-06-20T07:14:10.954Z,18.87
2018-06-20T07:16:39.818Z,16.57
2018-06-20T07:19:08.634Z,17.90
2018-06-20T07:21:37.969Z,17.23
2018-06-20T07:24:07.177Z,17.40
2018-06-20T07:26:36.357Z,15.60
2018-06-20T07:29:05.590Z,14.90
2018-06-20T07:31:34.756Z,15.97
2018-06-20T07:34:04.019Z,14.77
2018-06-20T07:36:33.162Z,11.50
2018-06-20T07:39:02.101Z,10.63
2018-06-20T07:41:31.608Z,10.90
2018-06-20T07:44:01.225Z,11.90
2018-06-20T07:46:30.446Z,10.73
2018-06-20T07:48:59.276Z,11.10
2018-06-20T07:51:28.446Z,9.00
2018-06-20T07:53:57.595Z,9.67
2018-06-20T07:56:27.044Z,10.40
2018-06-20T07:58:57.211Z,10.83
2018-06-20T08:01:42.601Z,8.93
2018-06-20T08:04:17.035Z,8.43
2018-06-20T08:06:51.445Z,8.83
2018-06-20T08:09:25.675Z,8.17
2018-06-20T08:12:00.207Z,7.70
2018-06-20T08:14:34.755Z,7.33
2018-06-20T08:17:10.853Z,6.70
2018-06-20T08:19:45.539Z,7.00
2018-06-20T08:22:18.506Z,7.33
2018-06-20T08:25:03.460Z,6.40
2018-06-20T08:27:33.458Z,6.10
2018-06-20T08:30:03.877Z,6.27
2018-06-20T08:32:33.842Z,5.33
2018-06-20T08:35:03.316Z,5.33
2018-06-20T08:37:32.579Z,6.77
2018-06-20T08:40:01.921Z,5.43
2018-06-20T08:42:31.613Z,6.47
2018-06-20T08:45:00.792Z,7.40
2018-06-20T08:47:30.056Z,8.77
2018-06-20T08:49:59.162Z,6.13
2018-06-20T08:52:28.640Z,6.40
2018-06-20T08:54:57.414Z,6.90
2018-06-20T08:57:26.491Z,8.03
2018-06-20T08:59:55.947Z,7.77
2018-06-20T09:02:25.037Z,9.40
2018-06-20T09:04:59.555Z,9.80
2018-06-20T09:07:34.119Z,10.67
2018-06-20T09:10:07.984Z,12.23
2018-06-20T09:12:41.996Z,14.00
2018-06-20T09:15:16.306Z,12.97
2018-06-20T09:17:50.240Z,11.67
2018-06-20T09:20:19.529Z,12.50
2018-06-20T09:22:48.946Z,13.10
2018-06-20T09:25:18.029Z,12.20
2018-06-20T09:27:47.147Z,13.23
2018-06-20T09:30:16.767Z,12.70
2018-06-20T09:32:46.364Z,12.97
2018-06-20T09:35:15.526Z,12.67
2018-06-20T09:37:45.283Z,12.87
2018-06-20T09:40:14.745Z,12.50
2018-06-20T09:42:43.544Z,11.47
2018-06-20T09:45:12.418Z,11.87
2018-06-20T09:47:41.532Z,11.90
2018-06-20T09:50:15.848Z,11.90
2018-06-20T09:52:45.030Z,10.83
2018-06-20T09:55:13.892Z,11.43
2018-06-20T09:57:42.986Z,10.03
2018-06-20T10:00:17.106Z,11.07
2018-06-20T10:02:51.393Z,11.07
2018-06-20T10:05:25.768Z,10.87
2018-06-20T10:08:59.614Z,12.80
2018-06-20T10:11:33.450Z,12.17
2018-06-20T10:14:03.477Z,10.93
2018-06-20T10:16:32.414Z,10.47
2018-06-20T10:19:02.018Z,10.13
2018-06-20T10:21:31.243Z,9.20
2018-06-20T10:24:00.376Z,9.23
2018-06-20T10:26:29.581Z,8.30
2018-06-20T10:28:58.710Z,10.33
2018-06-20T10:31:27.828Z,9.70
2018-06-20T10:33:57.533Z,10.70
2018-06-20T10:36:26.714Z,11.00
2018-06-20T10:38:56.243Z,10.37
2018-06-20T10:41:25.095Z,10.40
2018-06-20T10:43:53.972Z,9.50
2018-06-20T10:46:27.921Z,9.57
2018-06-20T10:48:57.952Z,8.20
2018-06-20T10:51:27.401Z,9.43
2018-06-20T10:54:00.591Z,8.93
2018-06-20T10:56:34.962Z,8.77
2018-06-20T10:59:09.144Z,7.30
2018-06-20T11:02:42.999Z,8.20
2018-06-20T11:05:17.182Z,7.63
2018-06-20T11:07:51.116Z,8.20
2018-06-20T11:10:25.047Z,9.20
2018-06-20T11:12:55.492Z,7.73
2018-06-20T11:15:24.860Z,6.93
2018-06-20T11:17:53.685Z,7.60
2018-06-20T11:20:27.898Z,8.57
2018-06-20T11:22:57.084Z,7.60
2018-06-20T11:25:26.300Z,7.00
2018-06-20T11:27:55.939Z,7.00
2018-06-20T11:30:25.381Z,7.60
2018-06-20T11:32:54.632Z,7.70
2018-06-20T11:35:23.516Z,7.20
2018-06-20T11:37:53.360Z,7.83
2018-06-20T11:40:22.189Z,6.70
2018-06-20T11:42:51.338Z,8.07
2018-06-20T11:45:21.048Z,7.43
2018-06-20T11:47:50.474Z,7.40
2018-06-20T11:50:19.656Z,7.47
2018-06-20T11:52:54.040Z,6.70
2018-06-20T11:55:28.555Z,7.20
2018-06-20T11:58:02.630Z,7.30
2018-06-20T12:00:36.742Z,7.20
2018-06-20T12:03:11.448Z,8.10
2018-06-20T12:05:45.268Z,7.73
2018-06-20T12:08:19.477Z,7.37
2018-06-20T12:10:53.631Z,9.00
2018-06-20T12:13:27.752Z,8.33
2018-06-20T12:16:01.704Z,8.90
2018-06-20T12:18:35.737Z,8.93
2018-06-20T12:21:10.077Z,9.97
2018-06-20T12:23:44.391Z,8.43
2018-06-20T12:26:18.602Z,8.90
2018-06-20T12:28:52.643Z,9.50
2018-06-20T12:31:26.525Z,8.43
2018-06-20T12:34:01.129Z,8.00
2018-06-20T12:36:35.109Z,7.50
2018-06-20T12:39:03.088Z,8.03
2018-06-20T12:41:37.947Z,8.10
2018-06-20T12:44:30.521Z,7.30
2018-06-20T12:47:02.047Z,9.03
2018-06-20T12:49:35.004Z,7.43
2018-06-20T12:52:03.928Z,7.60
2018-06-20T12:54:33.517Z,7.50
2018-06-20T12:57:02.690Z,7.20
2018-06-20T12:59:31.803Z,7.70
2018-06-20T13:02:00.911Z,6.80
2018-06-20T13:04:29.639Z,11.00
2018-06-20T13:06:58.393Z,5.30
2018-06-20T13:09:27.459Z,5.90
2018-06-20T13:11:56.551Z,7.73
2018-06-20T13:14:25.697Z,5.87
2018-06-20T13:16:54.996Z,6.47
2018-06-20T13:19:23.742Z,7.97
2018-06-20T13:21:53.015Z,6.40
2018-06-20T13:24:22.164Z,6.67
2018-06-20T13:26:51.047Z,6.00
2018-06-20T13:29:19.767Z,7.30
2018-06-20T13:31:53.959Z,7.33
2018-06-20T13:34:28.463Z,7.40
2018-06-20T13:37:02.529Z,5.73
2018-06-20T13:39:36.678Z,8.40
2018-06-20T13:42:08.694Z,6.90
2018-06-20T13:44:37.771Z,6.63
2018-06-20T13:47:11.855Z,9.43
2018-06-20T13:49:41.083Z,9.00
2018-06-20T13:52:10.229Z,8.90
2018-06-20T13:54:39.419Z,9.77
2018-06-20T13:57:09.004Z,10.17
2018-06-20T13:59:37.775Z,10.70
2018-06-20T14:02:06.681Z,10.43
2018-06-20T14:04:35.776Z,11.03
2018-06-20T14:07:04.902Z,12.57
2018-06-20T14:09:34.091Z,11.80
2018-06-20T14:12:03.188Z,13.53
2018-06-20T14:14:32.804Z,12.43
2018-06-20T14:17:02.344Z,11.70
2018-06-20T14:19:36.378Z,12.70
2018-06-20T14:22:05.764Z,11.70
2018-06-20T14:24:34.813Z,12.50
2018-06-20T14:27:03.857Z,11.70
2018-06-20T14:29:37.652Z,14.57
2018-06-20T14:32:11.894Z,14.30
2018-06-20T14:34:46.171Z,16.87
2018-06-20T14:38:19.079Z,16.67
2018-06-20T14:40:53.463Z,17.20
2018-06-20T14:43:27.687Z,17.23
2018-06-20T14:46:01.609Z,16.47
2018-06-20T14:48:31.174Z,16.40
2018-06-20T14:51:00.762Z,18.67
2018-06-20T14:53:29.608Z,16.00
2018-06-20T14:55:58.432Z,16.57
2018-06-20T14:58:27.655Z,17.83
2018-06-20T15:00:57.116Z,20.47
2018-06-20T15:03:25.993Z,19.70
2018-06-20T15:05:55.008Z,15.10
2018-06-20T15:08:24.186Z,14.80
2018-06-20T15:10:53.783Z,13.73
2018-06-20T15:13:23.106Z,14.20
2018-06-20T15:15:52.295Z,13.63
2018-06-20T15:18:21.254Z,12.20
2018-06-20T15:20:50.097Z,14.17
2018-06-20T15:23:19.414Z,13.93
2018-06-20T15:25:53.537Z,13.27
2018-06-20T15:28:27.847Z,13.17
2018-06-20T15:31:05.018Z,14.13
2018-06-20T15:33:39.258Z,13.63
2018-06-20T15:36:13.707Z,13.50
2018-06-20T15:38:42.968Z,13.57
2018-06-20T15:41:12.523Z,12.23
2018-06-20T15:43:42.395Z,12.90
2018-06-20T15:46:12.631Z,14.40
2018-06-20T15:48:42.716Z,14.93
2018-06-20T15:51:12.170Z,14.40
2018-06-20T15:53:41.163Z,14.80
2018-06-20T15:56:10.605Z,14.27
2018-06-20T15:58:39.597Z,15.60
2018-06-20T16:01:08.727Z,14.07
2018-06-20T16:03:38.160Z,13.10
2018-06-20T16:06:07.067Z,13.17
2018-06-20T16:08:42.067Z,11.60
2018-06-20T16:11:11.005Z,11.90
2018-06-20T16:13:40.532Z,14.70
2018-06-20T16:16:11.441Z,13.67
2018-06-20T16:18:44.985Z,15.57
2018-06-20T16:21:19.293Z,14.07
2018-06-20T16:23:53.634Z,14.20
2018-06-20T16:26:27.553Z,15.43
2018-06-20T16:29:03.509Z,14.00
2018-06-20T16:31:32.804Z,17.70
2018-06-20T16:34:02.561Z,17.47
2018-06-20T16:36:31.764Z,15.97
2018-06-20T16:39:00.694Z,13.90
2018-06-20T16:41:29.594Z,16.57
2018-06-20T16:43:58.485Z,17.20
2018-06-20T16:46:27.728Z,14.97
2018-06-20T16:48:57.304Z,14.93
2018-06-20T16:51:26.654Z,16.10
2018-06-20T16:53:55.523Z,16.60
2018-06-20T16:56:24.404Z,17.60
2018-06-20T16:58:53.989Z,15.50
2018-06-20T17:01:28.011Z,14.43
2018-06-20T17:03:57.148Z,11.53
2018-06-20T17:06:26.591Z,11.37
2018-06-20T17:08:55.403Z,11.00
2018-06-20T17:11:25.272Z,12.53
2018-06-20T17:13:59.290Z,14.23
2018-06-20T17:16:33.603Z,11.57
2018-06-20T17:19:07.638Z,11.93
2018-06-20T17:21:42.092Z,12.43
2018-06-20T17:24:16.280Z,9.50
2018-06-20T17:26:45.485Z,11.70
2018-06-20T17:29:15.025Z,9.70
2018-06-20T17:31:45.238Z,9.00
2018-06-20T17:34:14.815Z,9.10
2018-06-20T17:36:44.301Z,8.30
2018-06-20T17:39:14.565Z,7.33
2018-06-20T17:41:43.629Z,7.53
2018-06-20T17:44:13.050Z,8.07
2018-06-20T17:46:42.178Z,8.47
2018-06-20T17:49:11.692Z,7.70
2018-06-20T17:51:41.570Z,8.70
2018-06-20T17:54:11.807Z,9.00
2018-06-20T17:56:41.244Z,8.60
2018-06-20T17:59:10.770Z,9.00
2018-06-20T18:01:40.380Z,8.93
2018-06-20T18:04:10.020Z,9.80
2018-06-20T18:06:44.726Z,9.03
2018-06-20T18:09:19.399Z,9.07
2018-06-20T18:11:53.477Z,10.70
2018-06-20T18:14:27.958Z,10.03
2018-06-20T18:16:59.720Z,9.27
2018-06-20T18:19:30.070Z,9.57
2018-06-20T18:21:59.334Z,10.77
2018-06-20T18:24:28.529Z,9.83
2018-06-20T18:26:58.219Z,10.23
2018-06-20T18:29:27.949Z,10.67
2018-06-20T18:31:57.485Z,13.30
2018-06-20T18:34:26.935Z,14.10
2018-06-20T18:36:56.375Z,17.33
2018-06-20T18:39:25.858Z,17.33
2018-06-20T18:41:55.166Z,17.37
2018-06-20T18:44:24.223Z,18.60
2018-06-20T18:46:54.046Z,18.33
2018-06-20T18:49:23.618Z,17.57
2018-06-20T18:51:58.384Z,17.77
2018-06-20T18:54:27.687Z,17.13
2018-06-20T18:56:56.796Z,18.47
2018-06-20T18:59:31.155Z,17.20
2018-06-20T19:02:05.353Z,15.07
2018-06-20T19:04:39.618Z,18.50
2018-06-20T19:07:13.683Z,16.17
2018-06-20T19:09:42.975Z,15.97
2018-06-20T19:12:12.562Z,17.40
2018-06-20T19:14:41.745Z,17.80
2018-06-20T19:17:10.913Z,16.30
2018-06-20T19:19:40.400Z,16.60
2018-06-20T19:22:09.578Z,16.60
2018-06-20T19:24:38.883Z,17.00
2018-06-20T19:27:08.323Z,15.90
2018-06-20T19:29:37.971Z,15.63
2018-06-20T19:32:06.880Z,17.50
2018-06-20T19:34:36.413Z,15.77
2018-06-20T19:37:05.379Z,15.47
2018-06-20T19:39:39.771Z,16.43
2018-06-20T19:42:09.680Z,15.73
2018-06-20T19:44:39.138Z,13.43
2018-06-20T19:47:08.189Z,15.63
2018-06-20T19:49:37.330Z,16.20
2018-06-20T19:52:06.571Z,15.40
2018-06-20T19:54:36.024Z,16.80
2018-06-20T19:57:05.572Z,14.67
2018-06-20T19:59:35.340Z,14.77
2018-06-20T20:02:04.512Z,15.80
2018-06-20T20:04:33.945Z,15.50
2018-06-20T20:07:03.129Z,17.07
2018-06-20T20:09:32.668Z,15.00
2018-06-20T20:12:02.372Z,15.10
2018-06-20T20:14:32.228Z,14.97
2018-06-20T20:17:01.276Z,15.47
2018-06-20T20:19:30.945Z,14.97
2018-06-20T20:22:00.076Z,14.07
2018-06-20T20:24:29.749Z,13.70
2018-06-20T20:26:59.072Z,10.83
2018-06-20T20:29:28.656Z,10.50
2018-06-20T20:31:57.918Z,10.07
2018-06-20T20:34:27.164Z,9.27
2018-06-20T20:36:56.946Z,9.83
2018-06-20T20:39:26.875Z,10.27
2018-06-20T20:41:55.996Z,9.47
2018-06-20T20:44:25.635Z,8.53
2018-06-20T20:46:55.189Z,9.53
2018-06-20T20:49:24.368Z,9.60
2018-06-20T20:51:53.565Z,9.00
2018-06-20T20:54:22.595Z,9.90
2018-06-20T20:56:52.636Z,10.33
2018-06-20T20:59:21.945Z,9.53
2018-06-20T21:01:51.591Z,7.80
2018-06-20T21:04:21.116Z,8.60
2018-06-20T21:06:50.113Z,7.50
2018-06-20T21:09:19.165Z,7.20
2018-06-20T21:11:48.766Z,6.90
2018-06-20T21:14:18.079Z,6.23
2018-06-20T21:16:47.261Z,6.40
2018-06-20T21:19:16.399Z,4.97
2018-06-20T21:21:45.807Z,5.80
2018-06-20T21:24:15.464Z,6.70
2018-06-20T21:26:44.554Z,5.00
2018-06-20T21:29:14.228Z,5.43
2018-06-20T21:31:45.351Z,5.43
2018-06-20T21:34:14.989Z,5.30
2018-06-20T21:36:44.547Z,6.10
2018-06-20T21:39:13.925Z,5.20
2018-06-20T21:41:43.258Z,6.40
2018-06-20T21:44:12.445Z,5.80
2018-06-20T21:46:41.455Z,5.33
2018-06-20T21:49:10.955Z,5.67
2018-06-20T21:51:40.483Z,5.43
2018-06-20T21:54:09.713Z,4.30
2018-06-20T21:56:38.913Z,5.23
2018-06-20T21:59:08.445Z,4.60
2018-06-20T22:01:37.647Z,6.47
2018-06-20T22:04:06.682Z,5.23
2018-06-20T22:06:36.433Z,5.90
2018-06-20T22:09:09.258Z,5.60
2018-06-20T22:11:39.120Z,5.10
2018-06-20T22:14:09.490Z,5.67
2018-06-20T22:16:39.597Z,5.60
2018-06-20T22:19:08.761Z,5.43
2018-06-20T22:21:37.944Z,5.97
2018-06-20T22:24:06.896Z,6.00
2018-06-20T22:26:35.707Z,5.40
2018-06-20T22:29:05.472Z,6.13
2018-06-20T22:31:35.036Z,6.73
2018-06-20T22:34:04.112Z,5.40
2018-06-20T22:36:33.268Z,5.60
2018-06-20T22:39:02.169Z,5.37
2018-06-20T22:41:32.178Z,5.27
2018-06-20T22:44:01.738Z,5.27
2018-06-20T22:46:30.877Z,6.20
2018-06-20T22:49:00.543Z,7.17
2018-06-20T22:51:29.493Z,5.00
2018-06-20T22:53:59.001Z,5.93
2018-06-20T22:56:28.022Z,6.17
2018-06-20T22:58:59.528Z,5.80
2018-06-20T23:01:28.736Z,6.23
2018-06-20T23:03:59.126Z,5.43
2018-06-20T23:06:28.510Z,6.60
2018-06-20T23:08:58.261Z,6.07
2018-06-20T23:11:28.546Z,5.70
2018-06-20T23:13:58.396Z,6.10
2018-06-20T23:16:27.960Z,6.33
2018-06-20T23:18:58.493Z,5.40
2018-06-20T23:21:28.268Z,6.57
2018-06-20T23:23:57.159Z,5.77
2018-06-20T23:26:27.182Z,5.00
2018-06-20T23:28:56.855Z,5.67
2018-06-20T23:31:26.371Z,5.67
2018-06-20T23:33:55.795Z,5.13
2018-06-20T23:36:25.387Z,5.70
2018-06-20T23:38:54.767Z,6.53
2018-06-20T23:41:23.782Z,6.77
2018-06-20T23:43:52.673Z,5.97
2018-06-20T23:46:21.620Z,6.20
2018-06-20T23:48:50.573Z,5.37
2018-06-20T23:51:19.795Z,6.23
2018-06-20T23:53:48.698Z,6.60
2018-06-20T23:56:17.930Z,6.37
2018-06-20T23:58:47.530Z,6.03
